sensor_id;sensor_type;location;lat;lon;timestamp;P1;durP1;ratioP1;P2;durP2;ratioP2
15331;SDS011;7766;51.534;6.722;2023-01-25T00:00:14;26.75;;;19.83;;
15331;SDS011;7766;51.534;6.722;2023-01-25T00:01:16;27.85;;;19.80;;
15331;SDS011;7766;51.534;6.722;2023-01-25T00:02:16;25.83;;;18.47;;
15331;SDS011;7766;51.534;6.722;2023-01-25T00:03:17;25.27;;;18.98;;
15331;SDS011;7766;51.534;6.722;2023-01-25T00:04:19;27.27;;;19.07;;
15331;SDS011;7766;51.534;6.722;2023-01-25T00:05:20;24.95;;;19.10;;
15331;SDS011;7766;51.534;6.722;2023-01-25T00:06:21;26.20;;;19.40;;
15331;SDS011;7766;51.534;6.722;2023-01-25T00:07:22;25.42;;;18.67;;
15331;SDS011;7766;51.534;6.722;2023-01-25T00:08:23;26.13;;;19.45;;
15331;SDS011;7766;51.534;6.722;2023-01-25T00:09:24;23.93;;;18.80;;
15331;SDS011;7766;51.534;6.722;2023-01-25T00:10:26;25.58;;;18.30;;
15331;SDS011;7766;51.534;6.722;2023-01-25T00:11:26;26.50;;;18.37;;
15331;SDS011;7766;51.534;6.722;2023-01-25T00:12:27;25.92;;;18.77;;
15331;SDS011;7766;51.534;6.722;2023-01-25T00:13:28;23.95;;;18.45;;
15331;SDS011;7766;51.534;6.722;2023-01-25T00:14:29;25.98;;;19.20;;
15331;SDS011;7766;51.534;6.722;2023-01-25T00:15:30;23.35;;;17.60;;
15331;SDS011;7766;51.534;6.722;2023-01-25T00:16:31;25.27;;;18.60;;
15331;SDS011;7766;51.534;6.722;2023-01-25T00:17:32;25.60;;;18.63;;
15331;SDS011;7766;51.534;6.722;2023-01-25T00:18:33;23.70;;;17.67;;
15331;SDS011;7766;51.534;6.722;2023-01-25T00:19:34;23.00;;;17.55;;
15331;SDS011;7766;51.534;6.722;2023-01-25T00:20:35;23.27;;;18.03;;
15331;SDS011;7766;51.534;6.722;2023-01-25T00:21:36;23.10;;;18.35;;
15331;SDS011;7766;51.534;6.722;2023-01-25T00:22:38;26.67;;;19.95;;
15331;SDS011;7766;51.534;6.722;2023-01-25T00:23:39;25.33;;;18.27;;
15331;SDS011;7766;51.534;6.722;2023-01-25T00:24:40;25.52;;;18.42;;
15331;SDS011;7766;51.534;6.722;2023-01-25T00:25:41;23.83;;;18.13;;
15331;SDS011;7766;51.534;6.722;2023-01-25T00:26:42;22.95;;;18.33;;
15331;SDS011;7766;51.534;6.722;2023-01-25T00:27:43;23.98;;;17.65;;
15331;SDS011;7766;51.534;6.722;2023-01-25T00:28:51;24.35;;;18.73;;
15331;SDS011;7766;51.534;6.722;2023-01-25T00:29:53;27.75;;;18.77;;
15331;SDS011;7766;51.534;6.722;2023-01-25T00:30:58;25.48;;;18.38;;
15331;SDS011;7766;51.534;6.722;2023-01-25T00:33:02;25.57;;;18.43;;
15331;SDS011;7766;51.534;6.722;2023-01-25T00:35:31;23.45;;;18.35;;
15331;SDS011;7766;51.534;6.722;2023-01-25T00:37:39;26.60;;;17.95;;
15331;SDS011;7766;51.534;6.722;2023-01-25T00:38:45;25.75;;;18.33;;
15331;SDS011;7766;51.534;6.722;2023-01-25T00:39:47;25.17;;;17.50;;
15331;SDS011;7766;51.534;6.722;2023-01-25T00:40:48;26.40;;;19.00;;
15331;SDS011;7766;51.534;6.722;2023-01-25T00:41:49;27.60;;;19.73;;
15331;SDS011;7766;51.534;6.722;2023-01-25T00:42:50;26.95;;;19.13;;
15331;SDS011;7766;51.534;6.722;2023-01-25T00:43:51;27.67;;;19.50;;
15331;SDS011;7766;51.534;6.722;2023-01-25T00:44:52;27.50;;;20.40;;
15331;SDS011;7766;51.534;6.722;2023-01-25T00:45:58;25.17;;;18.58;;
15331;SDS011;7766;51.534;6.722;2023-01-25T00:47:00;25.70;;;18.92;;
15331;SDS011;7766;51.534;6.722;2023-01-25T00:48:01;25.23;;;18.45;;
15331;SDS011;7766;51.534;6.722;2023-01-25T00:49:02;27.05;;;17.90;;
15331;SDS011;7766;51.534;6.722;2023-01-25T00:50:04;22.55;;;17.15;;
15331;SDS011;7766;51.534;6.722;2023-01-25T00:51:06;22.40;;;17.15;;
15331;SDS011;7766;51.534;6.722;2023-01-25T00:52:07;23.33;;;18.07;;
15331;SDS011;7766;51.534;6.722;2023-01-25T00:53:09;28.20;;;19.35;;
15331;SDS011;7766;51.534;6.722;2023-01-25T00:54:10;51.15;;;30.90;;
15331;SDS011;7766;51.534;6.722;2023-01-25T00:55:11;42.00;;;27.02;;
15331;SDS011;7766;51.534;6.722;2023-01-25T00:56:11;28.00;;;20.53;;
15331;SDS011;7766;51.534;6.722;2023-01-25T00:57:12;25.40;;;18.30;;
15331;SDS011;7766;51.534;6.722;2023-01-25T00:58:13;25.75;;;19.10;;
15331;SDS011;7766;51.534;6.722;2023-01-25T00:59:14;23.87;;;18.17;;
15331;SDS011;7766;51.534;6.722;2023-01-25T01:00:15;25.95;;;18.98;;
15331;SDS011;7766;51.534;6.722;2023-01-25T01:01:16;26.17;;;18.30;;
15331;SDS011;7766;51.534;6.722;2023-01-25T01:02:17;25.92;;;18.02;;
15331;SDS011;7766;51.534;6.722;2023-01-25T01:03:18;25.23;;;18.90;;
15331;SDS011;7766;51.534;6.722;2023-01-25T01:04:20;23.75;;;18.80;;
15331;SDS011;7766;51.534;6.722;2023-01-25T01:05:24;27.00;;;19.00;;
15331;SDS011;7766;51.534;6.722;2023-01-25T01:06:27;24.35;;;18.65;;
15331;SDS011;7766;51.534;6.722;2023-01-25T01:07:28;24.63;;;18.80;;
15331;SDS011;7766;51.534;6.722;2023-01-25T01:08:29;27.52;;;19.77;;
15331;SDS011;7766;51.534;6.722;2023-01-25T01:09:33;28.63;;;19.30;;
15331;SDS011;7766;51.534;6.722;2023-01-25T01:10:34;25.35;;;19.40;;
15331;SDS011;7766;51.534;6.722;2023-01-25T01:11:35;28.23;;;20.60;;
15331;SDS011;7766;51.534;6.722;2023-01-25T01:12:36;26.20;;;19.35;;
15331;SDS011;7766;51.534;6.722;2023-01-25T01:13:37;28.73;;;20.03;;
15331;SDS011;7766;51.534;6.722;2023-01-25T01:14:38;28.10;;;18.83;;
15331;SDS011;7766;51.534;6.722;2023-01-25T01:15:39;29.77;;;20.52;;
15331;SDS011;7766;51.534;6.722;2023-01-25T01:16:40;28.13;;;19.30;;
15331;SDS011;7766;51.534;6.722;2023-01-25T01:17:41;29.52;;;21.35;;
15331;SDS011;7766;51.534;6.722;2023-01-25T01:18:43;28.90;;;20.52;;
15331;SDS011;7766;51.534;6.722;2023-01-25T01:19:45;30.63;;;21.23;;
15331;SDS011;7766;51.534;6.722;2023-01-25T01:20:49;28.57;;;20.03;;
15331;SDS011;7766;51.534;6.722;2023-01-25T01:21:53;28.95;;;19.35;;
15331;SDS011;7766;51.534;6.722;2023-01-25T01:22:54;26.13;;;19.70;;
15331;SDS011;7766;51.534;6.722;2023-01-25T01:23:55;26.73;;;19.50;;
15331;SDS011;7766;51.534;6.722;2023-01-25T01:24:56;27.75;;;20.58;;
15331;SDS011;7766;51.534;6.722;2023-01-25T01:26:00;29.07;;;20.67;;
15331;SDS011;7766;51.534;6.722;2023-01-25T01:27:03;34.03;;;23.73;;
15331;SDS011;7766;51.534;6.722;2023-01-25T01:28:04;43.55;;;26.80;;
15331;SDS011;7766;51.534;6.722;2023-01-25T01:29:05;52.47;;;33.00;;
15331;SDS011;7766;51.534;6.722;2023-01-25T01:30:06;47.28;;;29.13;;
15331;SDS011;7766;51.534;6.722;2023-01-25T01:31:10;36.30;;;25.42;;
15331;SDS011;7766;51.534;6.722;2023-01-25T01:32:13;34.55;;;23.60;;
15331;SDS011;7766;51.534;6.722;2023-01-25T01:33:14;29.88;;;20.80;;
15331;SDS011;7766;51.534;6.722;2023-01-25T01:34:15;28.75;;;21.60;;
15331;SDS011;7766;51.534;6.722;2023-01-25T01:35:16;31.13;;;22.40;;
15331;SDS011;7766;51.534;6.722;2023-01-25T01:36:18;30.03;;;20.77;;
15331;SDS011;7766;51.534;6.722;2023-01-25T01:37:20;29.55;;;19.77;;
15331;SDS011;7766;51.534;6.722;2023-01-25T01:38:21;28.88;;;21.20;;
15331;SDS011;7766;51.534;6.722;2023-01-25T01:39:22;28.77;;;20.63;;
15331;SDS011;7766;51.534;6.722;2023-01-25T01:40:23;28.02;;;20.63;;
15331;SDS011;7766;51.534;6.722;2023-01-25T01:41:25;29.48;;;20.20;;
15331;SDS011;7766;51.534;6.722;2023-01-25T01:42:26;25.17;;;18.83;;
15331;SDS011;7766;51.534;6.722;2023-01-25T01:43:26;26.63;;;20.07;;
15331;SDS011;7766;51.534;6.722;2023-01-25T01:45:55;31.67;;;21.15;;
15331;SDS011;7766;51.534;6.722;2023-01-25T01:46:57;28.50;;;21.17;;
15331;SDS011;7766;51.534;6.722;2023-01-25T01:47:59;31.08;;;21.90;;
15331;SDS011;7766;51.534;6.722;2023-01-25T01:49:10;28.73;;;20.60;;
15331;SDS011;7766;51.534;6.722;2023-01-25T01:50:19;28.85;;;19.50;;
15331;SDS011;7766;51.534;6.722;2023-01-25T01:51:45;30.85;;;20.65;;
15331;SDS011;7766;51.534;6.722;2023-01-25T01:52:46;30.35;;;21.23;;
15331;SDS011;7766;51.534;6.722;2023-01-25T01:53:55;30.23;;;22.08;;
15331;SDS011;7766;51.534;6.722;2023-01-25T01:55:17;30.88;;;21.38;;
15331;SDS011;7766;51.534;6.722;2023-01-25T01:56:30;29.35;;;20.98;;
15331;SDS011;7766;51.534;6.722;2023-01-25T01:57:52;28.73;;;20.65;;
15331;SDS011;7766;51.534;6.722;2023-01-25T01:58:57;31.50;;;20.98;;
15331;SDS011;7766;51.534;6.722;2023-01-25T02:01:08;28.63;;;20.42;;
15331;SDS011;7766;51.534;6.722;2023-01-25T02:02:10;31.65;;;21.50;;
15331;SDS011;7766;51.534;6.722;2023-01-25T02:03:13;31.20;;;22.52;;
15331;SDS011;7766;51.534;6.722;2023-01-25T02:04:15;31.75;;;21.63;;
15331;SDS011;7766;51.534;6.722;2023-01-25T02:05:34;28.58;;;19.30;;
15331;SDS011;7766;51.534;6.722;2023-01-25T02:07:05;31.00;;;20.15;;
15331;SDS011;7766;51.534;6.722;2023-01-25T02:08:19;27.52;;;19.40;;
15331;SDS011;7766;51.534;6.722;2023-01-25T02:09:21;30.35;;;20.40;;
15331;SDS011;7766;51.534;6.722;2023-01-25T02:10:25;30.85;;;21.38;;
15331;SDS011;7766;51.534;6.722;2023-01-25T02:11:27;32.60;;;22.17;;
15331;SDS011;7766;51.534;6.722;2023-01-25T02:12:29;30.65;;;21.92;;
15331;SDS011;7766;51.534;6.722;2023-01-25T02:13:31;30.55;;;21.48;;
15331;SDS011;7766;51.534;6.722;2023-01-25T02:14:33;33.13;;;21.85;;
15331;SDS011;7766;51.534;6.722;2023-01-25T02:15:40;34.90;;;23.63;;
15331;SDS011;7766;51.534;6.722;2023-01-25T02:16:46;31.67;;;22.73;;
15331;SDS011;7766;51.534;6.722;2023-01-25T02:17:47;35.30;;;23.55;;
15331;SDS011;7766;51.534;6.722;2023-01-25T02:18:50;35.83;;;23.50;;
15331;SDS011;7766;51.534;6.722;2023-01-25T02:19:57;30.38;;;21.17;;
15331;SDS011;7766;51.534;6.722;2023-01-25T02:21:15;29.63;;;20.17;;
15331;SDS011;7766;51.534;6.722;2023-01-25T02:22:16;29.37;;;21.23;;
15331;SDS011;7766;51.534;6.722;2023-01-25T02:24:32;29.02;;;21.45;;
15331;SDS011;7766;51.534;6.722;2023-01-25T02:25:36;30.10;;;20.60;;
15331;SDS011;7766;51.534;6.722;2023-01-25T02:26:37;29.58;;;20.48;;
15331;SDS011;7766;51.534;6.722;2023-01-25T02:27:40;30.75;;;19.95;;
15331;SDS011;7766;51.534;6.722;2023-01-25T02:28:49;28.35;;;19.17;;
15331;SDS011;7766;51.534;6.722;2023-01-25T02:30:03;28.02;;;20.63;;
15331;SDS011;7766;51.534;6.722;2023-01-25T02:31:05;30.42;;;20.33;;
15331;SDS011;7766;51.534;6.722;2023-01-25T02:32:06;25.45;;;18.60;;
15331;SDS011;7766;51.534;6.722;2023-01-25T02:33:07;26.35;;;18.85;;
15331;SDS011;7766;51.534;6.722;2023-01-25T02:34:08;29.40;;;20.40;;
15331;SDS011;7766;51.534;6.722;2023-01-25T02:35:55;29.80;;;20.70;;
15331;SDS011;7766;51.534;6.722;2023-01-25T02:36:36;28.65;;;19.52;;
15331;SDS011;7766;51.534;6.722;2023-01-25T02:37:37;25.10;;;18.90;;
15331;SDS011;7766;51.534;6.722;2023-01-25T02:38:42;31.08;;;21.85;;
15331;SDS011;7766;51.534;6.722;2023-01-25T02:39:47;28.67;;;20.13;;
15331;SDS011;7766;51.534;6.722;2023-01-25T02:40:49;31.58;;;21.35;;
15331;SDS011;7766;51.534;6.722;2023-01-25T02:41:55;31.70;;;21.77;;
15331;SDS011;7766;51.534;6.722;2023-01-25T02:42:56;27.35;;;20.70;;
15331;SDS011;7766;51.534;6.722;2023-01-25T02:43:58;28.67;;;20.50;;
15331;SDS011;7766;51.534;6.722;2023-01-25T02:45:01;32.60;;;20.60;;
15331;SDS011;7766;51.534;6.722;2023-01-25T02:47:19;30.90;;;21.63;;
15331;SDS011;7766;51.534;6.722;2023-01-25T02:48:20;29.80;;;21.60;;
15331;SDS011;7766;51.534;6.722;2023-01-25T02:49:21;33.53;;;22.00;;
15331;SDS011;7766;51.534;6.722;2023-01-25T02:50:23;30.00;;;21.42;;
15331;SDS011;7766;51.534;6.722;2023-01-25T02:51:24;35.17;;;23.33;;
15331;SDS011;7766;51.534;6.722;2023-01-25T02:52:27;33.30;;;21.20;;
15331;SDS011;7766;51.534;6.722;2023-01-25T02:53:28;31.38;;;21.75;;
15331;SDS011;7766;51.534;6.722;2023-01-25T02:54:29;31.13;;;21.38;;
15331;SDS011;7766;51.534;6.722;2023-01-25T02:55:30;31.13;;;21.63;;
15331;SDS011;7766;51.534;6.722;2023-01-25T02:56:31;30.20;;;20.73;;
15331;SDS011;7766;51.534;6.722;2023-01-25T02:57:32;30.85;;;21.35;;
15331;SDS011;7766;51.534;6.722;2023-01-25T02:58:33;34.20;;;22.03;;
15331;SDS011;7766;51.534;6.722;2023-01-25T02:59:34;30.73;;;22.05;;
15331;SDS011;7766;51.534;6.722;2023-01-25T03:00:35;30.40;;;21.45;;
15331;SDS011;7766;51.534;6.722;2023-01-25T03:01:37;30.30;;;20.38;;
15331;SDS011;7766;51.534;6.722;2023-01-25T03:02:39;32.53;;;21.00;;
15331;SDS011;7766;51.534;6.722;2023-01-25T03:03:40;31.83;;;21.30;;
15331;SDS011;7766;51.534;6.722;2023-01-25T03:04:41;31.63;;;22.52;;
15331;SDS011;7766;51.534;6.722;2023-01-25T03:05:42;34.50;;;22.20;;
15331;SDS011;7766;51.534;6.722;2023-01-25T03:06:43;33.83;;;22.92;;
15331;SDS011;7766;51.534;6.722;2023-01-25T03:07:44;35.45;;;23.75;;
15331;SDS011;7766;51.534;6.722;2023-01-25T03:08:45;33.05;;;22.42;;
15331;SDS011;7766;51.534;6.722;2023-01-25T03:09:46;34.45;;;22.95;;
15331;SDS011;7766;51.534;6.722;2023-01-25T03:10:47;34.95;;;23.63;;
15331;SDS011;7766;51.534;6.722;2023-01-25T03:11:48;34.90;;;22.73;;
15331;SDS011;7766;51.534;6.722;2023-01-25T03:12:49;39.63;;;23.33;;
15331;SDS011;7766;51.534;6.722;2023-01-25T03:13:50;31.33;;;21.60;;
15331;SDS011;7766;51.534;6.722;2023-01-25T03:14:51;34.22;;;22.73;;
15331;SDS011;7766;51.534;6.722;2023-01-25T03:15:57;31.90;;;21.83;;
15331;SDS011;7766;51.534;6.722;2023-01-25T03:17:00;34.17;;;23.65;;
15331;SDS011;7766;51.534;6.722;2023-01-25T03:18:01;37.65;;;23.38;;
15331;SDS011;7766;51.534;6.722;2023-01-25T03:19:02;38.78;;;24.95;;
15331;SDS011;7766;51.534;6.722;2023-01-25T03:20:03;41.35;;;25.00;;
15331;SDS011;7766;51.534;6.722;2023-01-25T03:22:07;45.40;;;26.85;;
15331;SDS011;7766;51.534;6.722;2023-01-25T03:23:09;45.08;;;28.23;;
15331;SDS011;7766;51.534;6.722;2023-01-25T03:24:10;43.45;;;26.30;;
15331;SDS011;7766;51.534;6.722;2023-01-25T03:25:11;36.77;;;23.47;;
15331;SDS011;7766;51.534;6.722;2023-01-25T03:27:13;41.77;;;24.20;;
15331;SDS011;7766;51.534;6.722;2023-01-25T03:28:16;39.25;;;24.98;;
15331;SDS011;7766;51.534;6.722;2023-01-25T03:29:16;39.93;;;25.10;;
15331;SDS011;7766;51.534;6.722;2023-01-25T03:30:17;35.60;;;24.30;;
15331;SDS011;7766;51.534;6.722;2023-01-25T03:31:18;35.30;;;23.25;;
15331;SDS011;7766;51.534;6.722;2023-01-25T03:32:19;35.42;;;22.63;;
15331;SDS011;7766;51.534;6.722;2023-01-25T03:33:21;35.92;;;23.33;;
15331;SDS011;7766;51.534;6.722;2023-01-25T03:34:22;34.53;;;22.92;;
15331;SDS011;7766;51.534;6.722;2023-01-25T03:35:23;36.28;;;24.55;;
15331;SDS011;7766;51.534;6.722;2023-01-25T03:36:23;41.03;;;26.13;;
15331;SDS011;7766;51.534;6.722;2023-01-25T03:37:24;45.10;;;26.25;;
15331;SDS011;7766;51.534;6.722;2023-01-25T03:38:29;40.88;;;25.63;;
15331;SDS011;7766;51.534;6.722;2023-01-25T03:39:30;44.13;;;25.95;;
15331;SDS011;7766;51.534;6.722;2023-01-25T03:40:31;38.45;;;24.85;;
15331;SDS011;7766;51.534;6.722;2023-01-25T03:41:32;43.15;;;25.85;;
15331;SDS011;7766;51.534;6.722;2023-01-25T03:42:33;46.60;;;26.83;;
15331;SDS011;7766;51.534;6.722;2023-01-25T03:43:34;44.28;;;27.55;;
15331;SDS011;7766;51.534;6.722;2023-01-25T03:44:35;44.17;;;27.10;;
15331;SDS011;7766;51.534;6.722;2023-01-25T03:45:36;44.78;;;27.20;;
15331;SDS011;7766;51.534;6.722;2023-01-25T03:46:37;42.25;;;26.17;;
15331;SDS011;7766;51.534;6.722;2023-01-25T03:47:40;41.00;;;25.73;;
15331;SDS011;7766;51.534;6.722;2023-01-25T03:48:41;41.55;;;25.40;;
15331;SDS011;7766;51.534;6.722;2023-01-25T03:49:42;43.63;;;26.63;;
15331;SDS011;7766;51.534;6.722;2023-01-25T03:50:47;40.58;;;25.90;;
15331;SDS011;7766;51.534;6.722;2023-01-25T03:51:52;40.03;;;24.77;;
15331;SDS011;7766;51.534;6.722;2023-01-25T03:52:53;42.80;;;23.92;;
15331;SDS011;7766;51.534;6.722;2023-01-25T03:54:00;38.67;;;24.85;;
15331;SDS011;7766;51.534;6.722;2023-01-25T03:55:01;38.45;;;24.40;;
15331;SDS011;7766;51.534;6.722;2023-01-25T03:56:04;33.85;;;22.40;;
15331;SDS011;7766;51.534;6.722;2023-01-25T03:57:10;36.05;;;23.13;;
15331;SDS011;7766;51.534;6.722;2023-01-25T03:58:11;33.58;;;23.10;;
15331;SDS011;7766;51.534;6.722;2023-01-25T03:59:12;34.23;;;22.30;;
15331;SDS011;7766;51.534;6.722;2023-01-25T04:00:14;33.03;;;22.05;;
15331;SDS011;7766;51.534;6.722;2023-01-25T04:01:15;34.72;;;23.65;;
15331;SDS011;7766;51.534;6.722;2023-01-25T04:02:16;35.35;;;22.58;;
15331;SDS011;7766;51.534;6.722;2023-01-25T04:03:17;36.37;;;23.27;;
15331;SDS011;7766;51.534;6.722;2023-01-25T04:04:20;34.58;;;21.33;;
15331;SDS011;7766;51.534;6.722;2023-01-25T04:05:21;35.00;;;23.30;;
15331;SDS011;7766;51.534;6.722;2023-01-25T04:06:22;36.42;;;22.33;;
15331;SDS011;7766;51.534;6.722;2023-01-25T04:07:23;35.70;;;22.67;;
15331;SDS011;7766;51.534;6.722;2023-01-25T04:08:24;32.07;;;22.53;;
15331;SDS011;7766;51.534;6.722;2023-01-25T04:09:25;32.35;;;21.80;;
15331;SDS011;7766;51.534;6.722;2023-01-25T04:10:26;28.92;;;20.60;;
15331;SDS011;7766;51.534;6.722;2023-01-25T04:11:27;33.50;;;22.08;;
15331;SDS011;7766;51.534;6.722;2023-01-25T04:12:28;32.28;;;21.85;;
15331;SDS011;7766;51.534;6.722;2023-01-25T04:13:29;30.75;;;20.83;;
15331;SDS011;7766;51.534;6.722;2023-01-25T04:14:34;32.25;;;20.98;;
15331;SDS011;7766;51.534;6.722;2023-01-25T04:15:36;30.60;;;20.38;;
15331;SDS011;7766;51.534;6.722;2023-01-25T04:16:37;32.85;;;20.75;;
15331;SDS011;7766;51.534;6.722;2023-01-25T04:17:38;30.48;;;19.85;;
15331;SDS011;7766;51.534;6.722;2023-01-25T04:18:39;28.55;;;19.23;;
15331;SDS011;7766;51.534;6.722;2023-01-25T04:19:40;28.15;;;20.15;;
15331;SDS011;7766;51.534;6.722;2023-01-25T04:20:41;31.42;;;19.67;;
15331;SDS011;7766;51.534;6.722;2023-01-25T04:21:42;28.77;;;20.35;;
15331;SDS011;7766;51.534;6.722;2023-01-25T04:22:43;31.63;;;19.73;;
15331;SDS011;7766;51.534;6.722;2023-01-25T04:23:44;30.65;;;20.50;;
15331;SDS011;7766;51.534;6.722;2023-01-25T04:24:45;32.28;;;21.05;;
15331;SDS011;7766;51.534;6.722;2023-01-25T04:26:57;30.98;;;19.73;;
15331;SDS011;7766;51.534;6.722;2023-01-25T04:27:58;28.40;;;20.23;;
15331;SDS011;7766;51.534;6.722;2023-01-25T04:28:59;27.33;;;19.08;;
15331;SDS011;7766;51.534;6.722;2023-01-25T04:30:00;28.67;;;18.43;;
15331;SDS011;7766;51.534;6.722;2023-01-25T04:31:01;31.17;;;19.92;;
15331;SDS011;7766;51.534;6.722;2023-01-25T04:32:05;27.50;;;19.15;;
15331;SDS011;7766;51.534;6.722;2023-01-25T04:33:06;27.90;;;19.08;;
15331;SDS011;7766;51.534;6.722;2023-01-25T04:34:07;29.10;;;20.10;;
15331;SDS011;7766;51.534;6.722;2023-01-25T04:35:08;35.58;;;22.00;;
15331;SDS011;7766;51.534;6.722;2023-01-25T04:36:09;33.00;;;21.90;;
15331;SDS011;7766;51.534;6.722;2023-01-25T04:37:10;31.48;;;21.20;;
15331;SDS011;7766;51.534;6.722;2023-01-25T04:38:11;31.63;;;20.70;;
15331;SDS011;7766;51.534;6.722;2023-01-25T04:39:12;32.40;;;21.27;;
15331;SDS011;7766;51.534;6.722;2023-01-25T04:40:13;32.20;;;20.75;;
15331;SDS011;7766;51.534;6.722;2023-01-25T04:41:14;28.55;;;18.27;;
15331;SDS011;7766;51.534;6.722;2023-01-25T04:42:15;27.75;;;18.25;;
15331;SDS011;7766;51.534;6.722;2023-01-25T04:43:17;27.63;;;18.43;;
15331;SDS011;7766;51.534;6.722;2023-01-25T04:44:19;25.02;;;17.60;;
15331;SDS011;7766;51.534;6.722;2023-01-25T04:45:20;27.17;;;18.27;;
15331;SDS011;7766;51.534;6.722;2023-01-25T04:46:22;27.77;;;18.85;;
15331;SDS011;7766;51.534;6.722;2023-01-25T04:47:23;26.27;;;18.23;;
15331;SDS011;7766;51.534;6.722;2023-01-25T04:48:24;27.05;;;18.65;;
15331;SDS011;7766;51.534;6.722;2023-01-25T04:49:25;26.10;;;17.85;;
15331;SDS011;7766;51.534;6.722;2023-01-25T04:50:26;26.42;;;17.90;;
15331;SDS011;7766;51.534;6.722;2023-01-25T04:51:28;25.13;;;18.27;;
15331;SDS011;7766;51.534;6.722;2023-01-25T04:52:29;27.20;;;18.17;;
15331;SDS011;7766;51.534;6.722;2023-01-25T04:53:30;27.88;;;19.13;;
15331;SDS011;7766;51.534;6.722;2023-01-25T04:54:31;26.70;;;18.17;;
15331;SDS011;7766;51.534;6.722;2023-01-25T04:55:32;25.88;;;18.33;;
15331;SDS011;7766;51.534;6.722;2023-01-25T04:56:33;27.75;;;17.98;;
15331;SDS011;7766;51.534;6.722;2023-01-25T04:57:34;26.65;;;18.98;;
15331;SDS011;7766;51.534;6.722;2023-01-25T04:58:35;26.63;;;18.42;;
15331;SDS011;7766;51.534;6.722;2023-01-25T04:59:36;26.35;;;17.23;;
15331;SDS011;7766;51.534;6.722;2023-01-25T05:00:37;30.38;;;18.30;;
15331;SDS011;7766;51.534;6.722;2023-01-25T05:01:39;26.30;;;17.63;;
15331;SDS011;7766;51.534;6.722;2023-01-25T05:02:40;27.97;;;19.20;;
15331;SDS011;7766;51.534;6.722;2023-01-25T05:03:41;28.75;;;18.80;;
15331;SDS011;7766;51.534;6.722;2023-01-25T05:04:42;28.30;;;19.13;;
15331;SDS011;7766;51.534;6.722;2023-01-25T05:05:46;29.10;;;19.58;;
15331;SDS011;7766;51.534;6.722;2023-01-25T05:06:47;28.95;;;19.17;;
15331;SDS011;7766;51.534;6.722;2023-01-25T05:07:48;32.63;;;20.50;;
15331;SDS011;7766;51.534;6.722;2023-01-25T05:08:49;30.40;;;20.50;;
15331;SDS011;7766;51.534;6.722;2023-01-25T05:09:50;31.08;;;19.65;;
15331;SDS011;7766;51.534;6.722;2023-01-25T05:10:51;29.37;;;19.90;;
15331;SDS011;7766;51.534;6.722;2023-01-25T05:11:52;32.38;;;20.70;;
15331;SDS011;7766;51.534;6.722;2023-01-25T05:12:52;29.70;;;19.70;;
15331;SDS011;7766;51.534;6.722;2023-01-25T05:13:53;30.80;;;19.90;;
15331;SDS011;7766;51.534;6.722;2023-01-25T05:14:54;28.70;;;18.95;;
15331;SDS011;7766;51.534;6.722;2023-01-25T05:15:55;29.63;;;18.70;;
15331;SDS011;7766;51.534;6.722;2023-01-25T05:16:57;26.48;;;18.08;;
15331;SDS011;7766;51.534;6.722;2023-01-25T05:17:57;24.77;;;16.57;;
15331;SDS011;7766;51.534;6.722;2023-01-25T05:18:58;25.05;;;17.08;;
15331;SDS011;7766;51.534;6.722;2023-01-25T05:19:59;27.17;;;18.17;;
15331;SDS011;7766;51.534;6.722;2023-01-25T05:21:00;28.13;;;17.95;;
15331;SDS011;7766;51.534;6.722;2023-01-25T05:22:01;25.10;;;16.90;;
15331;SDS011;7766;51.534;6.722;2023-01-25T05:23:06;25.98;;;17.27;;
15331;SDS011;7766;51.534;6.722;2023-01-25T05:24:07;27.45;;;17.85;;
15331;SDS011;7766;51.534;6.722;2023-01-25T05:25:08;25.05;;;17.52;;
15331;SDS011;7766;51.534;6.722;2023-01-25T05:26:29;25.58;;;16.60;;
15331;SDS011;7766;51.534;6.722;2023-01-25T05:27:48;23.92;;;17.13;;
15331;SDS011;7766;51.534;6.722;2023-01-25T05:28:49;26.10;;;17.97;;
15331;SDS011;7766;51.534;6.722;2023-01-25T05:29:50;26.08;;;18.55;;
15331;SDS011;7766;51.534;6.722;2023-01-25T05:30:51;28.80;;;17.93;;
15331;SDS011;7766;51.534;6.722;2023-01-25T05:31:52;26.83;;;17.80;;
15331;SDS011;7766;51.534;6.722;2023-01-25T05:32:54;28.67;;;18.40;;
15331;SDS011;7766;51.534;6.722;2023-01-25T05:33:55;28.45;;;18.13;;
15331;SDS011;7766;51.534;6.722;2023-01-25T05:34:56;27.02;;;18.08;;
15331;SDS011;7766;51.534;6.722;2023-01-25T05:35:57;28.23;;;17.33;;
15331;SDS011;7766;51.534;6.722;2023-01-25T05:36:58;29.17;;;18.75;;
15331;SDS011;7766;51.534;6.722;2023-01-25T05:37:59;26.92;;;17.92;;
15331;SDS011;7766;51.534;6.722;2023-01-25T05:39:00;27.17;;;18.25;;
15331;SDS011;7766;51.534;6.722;2023-01-25T05:40:05;27.67;;;18.83;;
15331;SDS011;7766;51.534;6.722;2023-01-25T05:41:07;31.73;;;18.45;;
15331;SDS011;7766;51.534;6.722;2023-01-25T05:42:15;28.30;;;19.00;;
15331;SDS011;7766;51.534;6.722;2023-01-25T05:43:17;31.90;;;19.55;;
15331;SDS011;7766;51.534;6.722;2023-01-25T05:44:19;33.45;;;20.15;;
15331;SDS011;7766;51.534;6.722;2023-01-25T05:45:19;29.87;;;19.50;;
15331;SDS011;7766;51.534;6.722;2023-01-25T05:46:20;32.38;;;19.17;;
15331;SDS011;7766;51.534;6.722;2023-01-25T05:47:21;30.98;;;19.45;;
15331;SDS011;7766;51.534;6.722;2023-01-25T05:48:22;31.73;;;19.90;;
15331;SDS011;7766;51.534;6.722;2023-01-25T05:49:24;29.52;;;19.60;;
15331;SDS011;7766;51.534;6.722;2023-01-25T05:50:25;29.58;;;18.80;;
15331;SDS011;7766;51.534;6.722;2023-01-25T05:51:26;31.83;;;20.23;;
15331;SDS011;7766;51.534;6.722;2023-01-25T05:52:27;30.52;;;18.98;;
15331;SDS011;7766;51.534;6.722;2023-01-25T05:53:28;30.77;;;19.73;;
15331;SDS011;7766;51.534;6.722;2023-01-25T05:54:29;28.38;;;18.65;;
15331;SDS011;7766;51.534;6.722;2023-01-25T05:55:30;28.63;;;19.05;;
15331;SDS011;7766;51.534;6.722;2023-01-25T05:56:33;32.67;;;20.05;;
15331;SDS011;7766;51.534;6.722;2023-01-25T05:57:35;32.53;;;20.17;;
15331;SDS011;7766;51.534;6.722;2023-01-25T05:58:36;31.38;;;20.42;;
15331;SDS011;7766;51.534;6.722;2023-01-25T05:59:37;30.75;;;20.00;;
15331;SDS011;7766;51.534;6.722;2023-01-25T06:00:38;31.63;;;19.15;;
15331;SDS011;7766;51.534;6.722;2023-01-25T06:01:39;33.92;;;21.73;;
15331;SDS011;7766;51.534;6.722;2023-01-25T06:02:40;39.83;;;22.17;;
15331;SDS011;7766;51.534;6.722;2023-01-25T06:03:41;36.90;;;22.00;;
15331;SDS011;7766;51.534;6.722;2023-01-25T06:04:42;38.80;;;23.35;;
15331;SDS011;7766;51.534;6.722;2023-01-25T06:05:43;36.70;;;22.65;;
15331;SDS011;7766;51.534;6.722;2023-01-25T06:06:44;38.33;;;22.37;;
15331;SDS011;7766;51.534;6.722;2023-01-25T06:07:45;33.95;;;21.52;;
15331;SDS011;7766;51.534;6.722;2023-01-25T06:08:47;36.00;;;22.35;;
15331;SDS011;7766;51.534;6.722;2023-01-25T06:09:48;38.47;;;22.45;;
15331;SDS011;7766;51.534;6.722;2023-01-25T06:10:49;42.83;;;21.77;;
15331;SDS011;7766;51.534;6.722;2023-01-25T06:11:50;38.33;;;23.02;;
15331;SDS011;7766;51.534;6.722;2023-01-25T06:12:56;44.63;;;25.13;;
15331;SDS011;7766;51.534;6.722;2023-01-25T06:13:59;42.60;;;23.63;;
15331;SDS011;7766;51.534;6.722;2023-01-25T06:15:00;44.05;;;24.98;;
15331;SDS011;7766;51.534;6.722;2023-01-25T06:16:01;46.93;;;26.17;;
15331;SDS011;7766;51.534;6.722;2023-01-25T06:17:02;41.58;;;25.20;;
15331;SDS011;7766;51.534;6.722;2023-01-25T06:18:03;43.90;;;25.60;;
15331;SDS011;7766;51.534;6.722;2023-01-25T06:19:05;47.10;;;27.08;;
15331;SDS011;7766;51.534;6.722;2023-01-25T06:20:07;44.10;;;25.77;;
15331;SDS011;7766;51.534;6.722;2023-01-25T06:21:08;46.65;;;25.65;;